createdAt,value
2018-03-31T00:00:48.665Z,62.20
2018-03-31T00:03:14.727Z,62.00
2018-03-31T00:05:41.518Z,62.10
2018-03-31T00:08:07.712Z,62.80
2018-03-31T00:10:33.850Z,62.80
2018-03-31T00:13:00.671Z,63.00
2018-03-31T00:15:26.783Z,63.70
2018-03-31T00:17:52.832Z,63.10
2018-03-31T00:20:18.872Z,63.10
2018-03-31T00:22:45.000Z,63.00
2018-03-31T00:25:11.129Z,63.10
2018-03-31T00:27:37.270Z,63.50
2018-03-31T00:30:03.334Z,63.60
2018-03-31T00:32:29.434Z,63.40
2018-03-31T00:34:55.561Z,63.30
2018-03-31T00:37:21.600Z,63.40
2018-03-31T00:39:47.694Z,63.30
2018-03-31T00:42:13.802Z,63.60
2018-03-31T00:44:39.880Z,63.70
2018-03-31T00:47:06.702Z,63.40
2018-03-31T00:49:32.816Z,63.30
2018-03-31T00:51:58.915Z,63.40
2018-03-31T00:54:25.005Z,64.40
2018-03-31T00:56:51.110Z,64.70
2018-03-31T00:59:17.238Z,63.00
2018-03-31T01:01:44.012Z,63.70
2018-03-31T01:04:10.116Z,63.70
2018-03-31T01:06:36.294Z,64.70
2018-03-31T01:09:02.453Z,65.60
2018-03-31T01:11:28.611Z,66.90
2018-03-31T01:13:54.711Z,67.30
2018-03-31T01:16:20.770Z,68.40
2018-03-31T01:18:46.845Z,69.40
2018-03-31T01:21:12.938Z,69.80
2018-03-31T01:23:39.814Z,70.10
2018-03-31T01:26:06.002Z,70.10
2018-03-31T01:28:32.131Z,67.50
2018-03-31T01:30:59.167Z,67.10
2018-03-31T01:33:25.734Z,67.10
2018-03-31T01:35:52.692Z,67.10
2018-03-31T01:38:18.861Z,67.10
2018-03-31T01:40:45.124Z,68.10
2018-03-31T01:43:12.165Z,67.50
2018-03-31T01:45:39.315Z,68.30
2018-03-31T01:48:06.651Z,69.10
2018-03-31T01:50:33.693Z,69.10
2018-03-31T01:52:59.882Z,70.60
2018-03-31T01:55:32.597Z,70.30
2018-03-31T01:57:58.731Z,69.90
2018-03-31T02:00:24.949Z,71.10
2018-03-31T02:02:51.205Z,70.70
2018-03-31T02:05:18.342Z,70.40
2018-03-31T02:07:44.473Z,70.40
2018-03-31T02:10:10.577Z,70.10
2018-03-31T02:12:36.650Z,70.40
2018-03-31T02:15:03.415Z,70.50
2018-03-31T02:17:29.486Z,69.70
2018-03-31T02:19:56.316Z,70.70
2018-03-31T02:22:23.129Z,70.60
2018-03-31T02:24:49.214Z,70.50
2018-03-31T02:27:16.049Z,71.00
2018-03-31T02:29:42.159Z,71.00
2018-03-31T02:32:08.267Z,71.20
2018-03-31T02:34:34.407Z,71.70
2018-03-31T02:37:00.534Z,71.70
2018-03-31T02:39:27.346Z,73.10
2018-03-31T02:41:53.485Z,73.10
2018-03-31T02:44:19.619Z,70.70
2018-03-31T02:46:49.122Z,70.80
2018-03-31T02:49:15.195Z,71.00
2018-03-31T02:51:41.248Z,71.30
2018-03-31T02:54:08.140Z,72.60
2018-03-31T02:56:34.260Z,72.60
2018-03-31T02:59:00.322Z,72.00
2018-03-31T03:01:26.443Z,72.20
2018-03-31T03:03:52.502Z,73.20
2018-03-31T03:06:18.564Z,71.40
2018-03-31T03:08:44.693Z,70.80
2018-03-31T03:11:11.287Z,71.30
2018-03-31T03:13:38.026Z,72.00
2018-03-31T03:16:04.875Z,72.40
2018-03-31T03:18:31.186Z,72.30
2018-03-31T03:20:58.995Z,73.00
2018-03-31T03:23:25.392Z,72.90
2018-03-31T03:25:51.609Z,73.00
2018-03-31T03:28:17.708Z,73.30
2018-03-31T03:30:43.804Z,73.00
2018-03-31T03:33:09.931Z,73.00
2018-03-31T03:35:36.022Z,73.10
2018-03-31T03:38:02.098Z,73.40
2018-03-31T03:40:28.200Z,73.30
2018-03-31T03:42:54.294Z,73.10
2018-03-31T03:48:37.242Z,73.30
2018-03-31T03:51:03.371Z,71.50
2018-03-31T03:53:29.433Z,71.30
2018-03-31T03:55:55.505Z,71.30
2018-03-31T03:58:21.605Z,71.80
2018-03-31T04:00:47.755Z,71.60
2018-03-31T04:03:13.837Z,71.90
2018-03-31T04:05:43.318Z,72.40
2018-03-31T04:08:09.440Z,72.60
2018-03-31T04:10:35.510Z,72.50
2018-03-31T04:13:01.582Z,72.20
2018-03-31T04:15:31.528Z,73.30
2018-03-31T04:17:57.617Z,73.20
2018-03-31T04:20:23.727Z,73.10
2018-03-31T04:22:49.830Z,73.10
2018-03-31T04:25:16.650Z,73.10
2018-03-31T04:27:42.788Z,73.10
2018-03-31T04:30:09.974Z,73.10
2018-03-31T04:32:36.827Z,73.60
2018-03-31T04:35:03.012Z,73.50
2018-03-31T04:37:29.144Z,73.50
2018-03-31T04:39:55.239Z,73.50
2018-03-31T04:42:21.387Z,73.50
2018-03-31T04:44:48.230Z,73.50
2018-03-31T04:47:25.234Z,73.50
2018-03-31T04:49:52.088Z,73.70
2018-03-31T04:52:18.207Z,73.70
2018-03-31T04:54:44.308Z,73.50
2018-03-31T04:57:10.413Z,73.60
2018-03-31T04:59:37.253Z,73.20
2018-03-31T05:02:03.353Z,73.20
2018-03-31T05:04:29.487Z,73.30
2018-03-31T05:06:55.579Z,73.60
2018-03-31T05:09:22.426Z,73.30
2018-03-31T05:11:48.483Z,73.20
2018-03-31T05:14:15.324Z,73.60
2018-03-31T05:16:42.116Z,74.90
2018-03-31T05:19:08.236Z,74.80
2018-03-31T05:21:34.302Z,75.40
2018-03-31T05:24:00.393Z,76.20
2018-03-31T05:26:27.207Z,76.40
2018-03-31T05:28:53.406Z,76.40
2018-03-31T05:31:22.842Z,77.10
2018-03-31T05:33:48.948Z,77.80
2018-03-31T05:36:15.724Z,77.30
2018-03-31T05:38:41.830Z,77.30
2018-03-31T05:41:16.670Z,78.20
2018-03-31T05:43:43.518Z,78.10
2018-03-31T05:46:09.598Z,78.00
2018-03-31T05:48:35.727Z,77.70
2018-03-31T05:51:01.791Z,77.70
2018-03-31T05:53:27.882Z,77.30
2018-03-31T05:55:54.751Z,77.60
2018-03-31T05:58:21.566Z,77.30
2018-03-31T06:00:51.791Z,77.60
2018-03-31T06:03:17.840Z,77.60
2018-03-31T06:05:43.964Z,78.00
2018-03-31T06:08:10.132Z,77.90
2018-03-31T06:10:37.138Z,77.60
2018-03-31T06:13:03.250Z,77.50
2018-03-31T06:15:29.957Z,77.40
2018-03-31T06:17:55.998Z,77.50
2018-03-31T06:20:22.066Z,77.80
2018-03-31T06:25:42.445Z,77.70
2018-03-31T06:28:08.503Z,77.70
2018-03-31T06:30:34.627Z,78.30
2018-03-31T06:33:00.695Z,78.30
2018-03-31T06:35:34.865Z,78.40
2018-03-31T06:38:00.990Z,78.50
2018-03-31T06:40:27.902Z,78.10
2018-03-31T06:42:53.968Z,78.10
2018-03-31T06:45:21.112Z,78.30
2018-03-31T06:47:47.998Z,78.40
2018-03-31T06:50:14.824Z,78.60
2018-03-31T06:52:40.998Z,78.60
2018-03-31T06:55:08.517Z,78.30
2018-03-31T06:57:35.105Z,78.20
2018-03-31T07:00:01.292Z,78.40
2018-03-31T07:02:27.414Z,78.40
2018-03-31T07:04:53.513Z,78.50
2018-03-31T07:07:20.345Z,78.00
2018-03-31T07:09:46.474Z,78.00
2018-03-31T07:12:12.534Z,78.20
2018-03-31T07:14:38.711Z,77.80
2018-03-31T07:17:04.791Z,77.70
2018-03-31T07:19:30.928Z,77.20
2018-03-31T07:21:57.024Z,77.30
2018-03-31T07:24:23.223Z,77.10
2018-03-31T07:27:03.646Z,76.80
2018-03-31T07:29:29.785Z,77.40
2018-03-31T07:31:55.855Z,77.30
2018-03-31T07:34:22.755Z,77.40
2018-03-31T07:36:49.583Z,77.50
2018-03-31T07:39:15.663Z,77.40
2018-03-31T07:41:41.834Z,77.40
2018-03-31T07:44:08.074Z,77.60
2018-03-31T07:46:34.389Z,77.30
2018-03-31T07:49:00.513Z,75.30
2018-03-31T07:51:26.670Z,74.60
2018-03-31T07:53:52.844Z,74.60
2018-03-31T07:56:18.951Z,74.50
2018-03-31T07:58:45.088Z,74.10
2018-03-31T08:01:11.244Z,74.30
2018-03-31T08:03:37.442Z,74.10
2018-03-31T08:06:07.100Z,74.70
2018-03-31T08:08:33.321Z,74.60
2018-03-31T08:10:59.444Z,74.30
2018-03-31T08:13:26.355Z,73.90
2018-03-31T08:15:52.565Z,74.00
2018-03-31T08:18:18.896Z,74.90
2018-03-31T08:20:44.938Z,75.00
2018-03-31T08:23:11.958Z,75.40
2018-03-31T08:25:38.911Z,74.70
2018-03-31T08:28:05.019Z,74.60
2018-03-31T08:30:31.160Z,74.80
2018-03-31T08:32:57.991Z,74.00
2018-03-31T08:35:24.836Z,73.30
2018-03-31T08:37:51.694Z,72.80
2018-03-31T08:40:18.586Z,73.50
2018-03-31T08:42:44.627Z,73.40
2018-03-31T08:45:10.788Z,73.80
2018-03-31T08:47:36.956Z,73.70
2018-03-31T08:50:03.765Z,74.40
2018-03-31T08:52:29.854Z,74.40
2018-03-31T08:54:56.875Z,73.60
2018-03-31T08:57:23.036Z,73.50
2018-03-31T08:59:49.138Z,73.80
2018-03-31T09:02:15.394Z,73.00
2018-03-31T09:04:41.505Z,72.70
2018-03-31T09:07:07.613Z,72.20
2018-03-31T09:09:34.466Z,71.60
2018-03-31T09:12:00.625Z,71.60
2018-03-31T09:14:27.454Z,69.60
2018-03-31T09:17:01.318Z,68.00
2018-03-31T09:19:27.471Z,68.00
2018-03-31T09:21:53.563Z,64.60
2018-03-31T09:24:19.682Z,64.40
2018-03-31T09:26:49.848Z,63.40
2018-03-31T09:29:15.902Z,64.10
2018-03-31T09:31:42.010Z,63.50
2018-03-31T09:34:08.898Z,62.30
2018-03-31T09:36:35.836Z,62.10
2018-03-31T09:39:01.961Z,62.10
2018-03-31T09:41:28.770Z,62.30
2018-03-31T09:43:54.833Z,62.30
2018-03-31T09:46:21.020Z,62.10
2018-03-31T09:48:47.094Z,62.40
2018-03-31T09:51:13.237Z,61.30
2018-03-31T09:53:39.354Z,62.00
2018-03-31T09:56:05.451Z,62.60
2018-03-31T09:58:31.506Z,62.60
2018-03-31T10:01:02.580Z,62.40
2018-03-31T10:03:28.675Z,62.20
2018-03-31T10:05:54.790Z,62.20
2018-03-31T10:08:20.846Z,63.90
2018-03-31T10:10:47.538Z,63.30
2018-03-31T10:13:13.698Z,62.70
2018-03-31T10:15:39.827Z,63.80
2018-03-31T10:18:06.126Z,64.60
2018-03-31T10:20:32.578Z,64.80
2018-03-31T10:22:58.672Z,64.70
2018-03-31T10:25:25.222Z,63.60
2018-03-31T10:27:51.719Z,63.80
2018-03-31T10:30:17.850Z,64.50
2018-03-31T10:32:43.971Z,65.40
2018-03-31T10:35:10.916Z,64.90
2018-03-31T10:37:37.905Z,64.10
2018-03-31T10:40:04.297Z,64.10
2018-03-31T10:42:30.684Z,64.10
2018-03-31T10:44:56.835Z,64.00
2018-03-31T10:47:23.106Z,64.30
2018-03-31T10:49:49.939Z,64.70
2018-03-31T10:52:16.251Z,64.70
2018-03-31T10:54:43.113Z,64.50
2018-03-31T10:57:10.073Z,65.60
2018-03-31T10:59:37.124Z,65.10
2018-03-31T11:02:03.271Z,65.00
2018-03-31T11:04:29.453Z,64.20
2018-03-31T11:06:55.609Z,64.10
2018-03-31T11:09:21.750Z,63.90
2018-03-31T11:11:47.992Z,64.20
2018-03-31T11:14:14.147Z,64.20
2018-03-31T11:16:40.285Z,64.90
2018-03-31T11:19:06.586Z,64.80
2018-03-31T11:21:34.075Z,65.10
2018-03-31T11:24:00.300Z,65.20
2018-03-31T11:26:26.707Z,65.20
2018-03-31T11:28:53.683Z,66.30
2018-03-31T11:31:20.506Z,65.70
2018-03-31T11:33:46.851Z,65.70
2018-03-31T11:36:13.006Z,66.40
2018-03-31T11:38:39.948Z,66.50
2018-03-31T11:41:06.159Z,66.50
2018-03-31T11:43:33.393Z,67.50
2018-03-31T11:46:03.906Z,66.70
2018-03-31T11:48:30.764Z,66.40
2018-03-31T11:50:57.624Z,66.80
2018-03-31T11:53:24.503Z,66.40
2018-03-31T11:55:50.637Z,66.30
2018-03-31T11:58:18.606Z,65.80
2018-03-31T12:00:45.659Z,66.20
2018-03-31T12:03:12.793Z,65.70
2018-03-31T12:05:38.906Z,65.60
2018-03-31T12:08:05.452Z,65.60
2018-03-31T12:10:31.601Z,66.30
2018-03-31T12:12:57.720Z,66.30
2018-03-31T12:15:23.854Z,64.90
2018-03-31T12:17:50.020Z,65.50
2018-03-31T12:20:16.306Z,65.40
2018-03-31T12:22:43.212Z,65.10
2018-03-31T12:25:09.303Z,65.10
2018-03-31T12:27:36.224Z,64.10
2018-03-31T12:30:03.217Z,63.40
2018-03-31T12:32:29.492Z,63.40
2018-03-31T12:34:55.641Z,63.30
2018-03-31T12:37:21.770Z,62.10
2018-03-31T12:39:47.982Z,61.60
2018-03-31T12:42:14.901Z,61.30
2018-03-31T12:44:41.047Z,61.10
2018-03-31T12:47:07.531Z,61.60
2018-03-31T12:49:34.619Z,60.90
2018-03-31T12:52:00.785Z,60.90
2018-03-31T12:54:26.921Z,61.50
2018-03-31T12:56:53.078Z,61.60
2018-03-31T12:59:19.212Z,61.40
2018-03-31T13:01:45.351Z,60.40
2018-03-31T13:04:11.807Z,60.00
2018-03-31T13:06:38.171Z,58.20
2018-03-31T13:09:05.220Z,59.40
2018-03-31T13:11:32.148Z,59.40
2018-03-31T13:13:58.520Z,59.40
2018-03-31T13:16:24.711Z,58.20
2018-03-31T13:18:51.170Z,57.80
2018-03-31T13:21:17.390Z,57.90
2018-03-31T13:23:44.601Z,57.60
2018-03-31T13:26:10.739Z,57.70
2018-03-31T13:28:36.994Z,57.20
2018-03-31T13:31:03.348Z,57.50
2018-03-31T13:33:29.695Z,57.30
2018-03-31T13:35:55.849Z,57.00
2018-03-31T13:38:21.934Z,57.60
2018-03-31T13:40:48.864Z,58.10
2018-03-31T13:43:15.007Z,57.50
2018-03-31T13:45:41.208Z,59.00
2018-03-31T13:48:07.496Z,59.80
2018-03-31T13:50:34.197Z,60.10
2018-03-31T13:53:01.249Z,59.60
2018-03-31T13:55:27.428Z,59.50
2018-03-31T13:57:53.742Z,59.90
2018-03-31T14:00:19.924Z,60.10
2018-03-31T14:02:46.130Z,59.30
2018-03-31T14:05:12.358Z,59.40
2018-03-31T14:07:38.581Z,59.40
2018-03-31T14:10:05.696Z,59.00
2018-03-31T14:12:32.003Z,59.00
2018-03-31T14:14:58.423Z,59.60
2018-03-31T14:17:25.358Z,60.30
2018-03-31T14:19:51.649Z,60.10
2018-03-31T14:22:17.815Z,60.60
2018-03-31T14:24:44.107Z,60.90
2018-03-31T14:27:10.960Z,60.60
2018-03-31T14:29:37.797Z,60.90
2018-03-31T14:32:05.074Z,60.90
2018-03-31T14:34:31.244Z,60.80
2018-03-31T14:36:57.409Z,61.60
2018-03-31T14:39:24.318Z,61.30
2018-03-31T14:41:51.285Z,61.80
2018-03-31T14:44:19.338Z,61.80
2018-03-31T14:46:45.497Z,61.80
2018-03-31T14:49:12.407Z,62.40
2018-03-31T14:51:38.598Z,62.30
2018-03-31T14:54:05.586Z,62.90
2018-03-31T14:56:31.713Z,62.90
2018-03-31T14:58:57.841Z,63.50
2018-03-31T15:01:26.455Z,63.70
2018-03-31T15:03:52.686Z,63.80
2018-03-31T15:06:18.920Z,64.30
2018-03-31T15:08:45.830Z,63.80
2018-03-31T15:11:12.774Z,63.70
2018-03-31T15:13:38.921Z,63.40
2018-03-31T15:16:05.234Z,63.20
2018-03-31T15:18:32.016Z,63.00
2018-03-31T15:20:58.084Z,62.40
2018-03-31T15:23:24.211Z,62.80
2018-03-31T15:25:51.387Z,62.90
2018-03-31T15:28:17.516Z,64.00
2018-03-31T15:30:43.572Z,64.10
2018-03-31T15:33:10.486Z,64.40
2018-03-31T15:35:36.644Z,65.20
2018-03-31T15:38:03.771Z,64.40
2018-03-31T15:40:30.887Z,64.40
2018-03-31T15:42:57.779Z,64.80
2018-03-31T15:45:27.090Z,64.70
2018-03-31T15:47:53.183Z,65.60
2018-03-31T15:50:19.301Z,67.00
2018-03-31T15:52:45.579Z,66.30
2018-03-31T15:55:12.426Z,66.30
2018-03-31T15:57:38.579Z,66.30
2018-03-31T16:00:05.551Z,66.20
2018-03-31T16:02:32.923Z,65.30
2018-03-31T16:04:59.073Z,65.20
2018-03-31T16:07:25.257Z,65.80
2018-03-31T16:09:51.373Z,65.20
2018-03-31T16:12:17.527Z,65.70
2018-03-31T16:14:43.677Z,66.40
2018-03-31T16:17:09.765Z,67.00
2018-03-31T16:19:35.883Z,67.40
2018-03-31T16:22:02.105Z,67.40
2018-03-31T16:24:28.223Z,67.30
2018-03-31T16:26:54.534Z,67.30
2018-03-31T16:29:21.150Z,67.60
2018-03-31T16:31:48.031Z,68.10
2018-03-31T16:34:14.238Z,68.00
2018-03-31T16:36:40.466Z,67.20
2018-03-31T16:39:06.776Z,67.20
2018-03-31T16:41:33.222Z,67.90
2018-03-31T16:43:59.496Z,67.90
2018-03-31T16:46:25.627Z,67.80
2018-03-31T16:48:51.790Z,67.70
2018-03-31T16:51:18.790Z,67.70
2018-03-31T16:53:44.943Z,67.70
2018-03-31T16:56:11.039Z,67.80
2018-03-31T16:58:37.911Z,68.30
2018-03-31T17:01:04.684Z,68.40
2018-03-31T17:03:30.807Z,68.50
2018-03-31T17:05:56.988Z,68.90
2018-03-31T17:08:23.133Z,68.40
2018-03-31T17:10:49.327Z,68.50
2018-03-31T17:13:15.495Z,68.40
2018-03-31T17:15:41.635Z,68.30
2018-03-31T17:18:08.000Z,68.10
2018-03-31T17:20:34.658Z,68.20
2018-03-31T17:23:00.854Z,68.40
2018-03-31T17:25:27.028Z,68.20
2018-03-31T17:27:54.319Z,68.20
2018-03-31T17:30:20.536Z,68.90
2018-03-31T17:32:46.678Z,68.20
2018-03-31T17:35:12.890Z,68.00
2018-03-31T17:37:41.180Z,68.10
2018-03-31T17:40:07.451Z,68.50
2018-03-31T17:42:33.912Z,68.60
2018-03-31T17:45:00.215Z,68.70
2018-03-31T17:47:26.307Z,68.70
2018-03-31T17:49:52.499Z,69.20
2018-03-31T17:52:18.651Z,69.00
2018-03-31T17:54:45.444Z,69.30
2018-03-31T17:57:11.579Z,69.30
2018-03-31T17:59:37.848Z,69.20
2018-03-31T18:02:04.254Z,69.40
2018-03-31T18:04:30.496Z,69.00
2018-03-31T18:06:56.772Z,69.20
2018-03-31T18:09:22.973Z,69.50
2018-03-31T18:11:49.936Z,69.90
2018-03-31T18:14:16.982Z,69.60
2018-03-31T18:16:43.168Z,69.60
2018-03-31T18:19:11.750Z,69.40
2018-03-31T18:21:38.062Z,69.60
2018-03-31T18:24:04.995Z,69.70
2018-03-31T18:26:31.303Z,70.10
2018-03-31T18:28:57.519Z,70.40
2018-03-31T18:31:24.406Z,70.30
2018-03-31T18:33:50.626Z,70.30
2018-03-31T18:36:16.650Z,70.40
2018-03-31T18:38:43.501Z,70.60
2018-03-31T18:41:14.026Z,70.50
2018-03-31T18:43:40.210Z,70.90
2018-03-31T18:46:06.363Z,70.30
2018-03-31T18:48:32.540Z,70.20
2018-03-31T18:50:58.822Z,70.30
2018-03-31T18:53:25.057Z,70.30
2018-03-31T18:55:51.407Z,69.80
2018-03-31T18:58:18.440Z,69.90
2018-03-31T19:00:44.770Z,70.20
2018-03-31T19:03:12.450Z,70.10
2018-03-31T19:05:38.643Z,70.20
2018-03-31T19:08:05.183Z,70.60
2018-03-31T19:10:32.664Z,70.30
2018-03-31T19:12:58.960Z,70.50
2018-03-31T19:15:25.981Z,71.10
2018-03-31T19:17:52.213Z,71.10
2018-03-31T19:20:18.369Z,71.50
2018-03-31T19:22:44.532Z,71.80
2018-03-31T19:25:16.655Z,72.00
2018-03-31T19:27:42.815Z,72.30
2018-03-31T19:30:08.962Z,70.80
2018-03-31T19:32:35.401Z,70.20
2018-03-31T19:35:01.779Z,70.10
2018-03-31T19:37:27.842Z,70.40
2018-03-31T19:39:54.122Z,71.30
2018-03-31T19:42:20.248Z,70.10
2018-03-31T19:44:46.422Z,70.10
2018-03-31T19:47:12.531Z,70.10
2018-03-31T19:49:38.602Z,69.10
2018-03-31T19:52:05.974Z,69.40
2018-03-31T19:54:33.348Z,70.10
2018-03-31T19:56:59.533Z,70.10
2018-03-31T19:59:25.683Z,70.00
2018-03-31T20:01:51.819Z,70.00
2018-03-31T20:04:18.943Z,70.00
2018-03-31T20:06:45.045Z,69.70
2018-03-31T20:09:11.164Z,69.90
2018-03-31T20:11:37.365Z,69.90
2018-03-31T20:14:03.584Z,70.00
2018-03-31T20:16:29.657Z,70.00
2018-03-31T20:18:55.734Z,69.90
2018-03-31T20:21:21.834Z,69.80
2018-03-31T20:23:47.899Z,69.90
2018-03-31T20:26:14.026Z,70.30
2018-03-31T20:28:40.112Z,70.30
2018-03-31T20:31:06.318Z,70.80
2018-03-31T20:33:32.432Z,70.60
2018-03-31T20:35:58.487Z,70.90
2018-03-31T20:38:24.583Z,70.20
2018-03-31T20:40:50.714Z,70.30
2018-03-31T20:43:17.698Z,70.40
2018-03-31T20:45:44.518Z,70.70
2018-03-31T20:48:11.442Z,70.40
2018-03-31T20:50:37.554Z,70.40
2018-03-31T20:53:03.687Z,70.60
2018-03-31T20:55:29.870Z,70.60
2018-03-31T20:57:55.977Z,70.70
2018-03-31T21:00:23.169Z,71.20
2018-03-31T21:02:49.230Z,71.20
2018-03-31T21:05:16.011Z,71.40
2018-03-31T21:07:42.104Z,71.20
2018-03-31T21:10:08.983Z,71.60
2018-03-31T21:12:35.860Z,71.30
2018-03-31T21:15:02.108Z,71.30
2018-03-31T21:17:28.134Z,71.10
2018-03-31T21:19:54.206Z,71.00
2018-03-31T21:22:30.446Z,70.60
2018-03-31T21:24:56.546Z,69.60
2018-03-31T21:27:22.675Z,69.20
2018-03-31T21:29:48.776Z,69.50
2018-03-31T21:32:14.944Z,69.00
2018-03-31T21:34:41.016Z,68.90
2018-03-31T21:37:07.879Z,69.40
2018-03-31T21:39:33.970Z,69.50
2018-03-31T21:42:00.024Z,69.50
2018-03-31T21:44:26.092Z,69.50
2018-03-31T21:47:02.277Z,69.50
2018-03-31T21:49:28.325Z,69.20
2018-03-31T21:51:54.560Z,70.10
2018-03-31T21:54:20.609Z,69.40
2018-03-31T21:56:46.694Z,69.60
2018-03-31T21:59:13.504Z,70.00
2018-03-31T22:01:39.586Z,70.00
2018-03-31T22:04:06.726Z,69.90
2018-03-31T22:06:32.918Z,69.80
2018-03-31T22:08:59.004Z,69.00
2018-03-31T22:11:25.086Z,69.60
2018-03-31T22:13:57.133Z,70.40
2018-03-31T22:16:23.240Z,69.90
2018-03-31T22:18:49.306Z,70.10
2018-03-31T22:21:15.406Z,70.00
2018-03-31T22:23:44.622Z,69.70
2018-03-31T22:26:10.662Z,69.40
2018-03-31T22:28:36.860Z,69.50
2018-03-31T22:31:03.039Z,68.70
2018-03-31T22:33:29.133Z,68.60
2018-03-31T22:35:56.057Z,69.60
2018-03-31T22:38:22.210Z,69.10
2018-03-31T22:40:48.487Z,69.50
2018-03-31T22:43:14.904Z,69.60
2018-03-31T22:45:41.522Z,70.00
2018-03-31T22:48:09.391Z,69.70
2018-03-31T22:50:36.597Z,70.10
2018-03-31T22:53:02.767Z,69.30
2018-03-31T22:55:28.813Z,69.20
2018-03-31T22:57:54.882Z,69.50
2018-03-31T23:00:20.954Z,69.80
2018-03-31T23:02:47.087Z,69.80
2018-03-31T23:05:13.176Z,70.50
2018-03-31T23:07:39.220Z,70.70
2018-03-31T23:10:05.315Z,70.30
2018-03-31T23:12:32.147Z,70.40
2018-03-31T23:14:58.215Z,70.30
2018-03-31T23:17:25.024Z,69.60
2018-03-31T23:19:51.166Z,69.60
2018-03-31T23:22:17.304Z,69.50
2018-03-31T23:24:43.699Z,68.90
2018-03-31T23:27:09.764Z,69.40
2018-03-31T23:29:35.825Z,69.30
2018-03-31T23:32:01.946Z,69.40
2018-03-31T23:34:31.773Z,69.60
2018-03-31T23:36:57.865Z,69.70
2018-03-31T23:39:27.801Z,69.60
2018-03-31T23:41:54.642Z,69.20
2018-03-31T23:44:21.490Z,68.80
2018-03-31T23:46:48.566Z,68.90
2018-03-31T23:49:14.726Z,68.70
2018-03-31T23:51:40.802Z,69.10
2018-03-31T23:54:06.895Z,69.10
2018-03-31T23:56:33.003Z,68.80
2018-03-31T23:58:59.046Z,68.80
